Time;durP1;ratioP1;P1;durP2;ratioP2;P2;SDS_P1;SDS_P2;PMS_P1;PMS_P2;Temp;Humidity;BMP_temperature;BMP_pressure;BME280_temperature;BME280_humidity;BME280_pressure;Samples;Min_cycle;Max_cycle;Signal;HPM_P1;HPM_P2
2023/07/18 00:00:42;;;;;;;19.90;18.10;;;;;;;17.67;100.00;98981.78;107199;1251;60571;-87
2023/07/18 00:03:28;;;;;;;22.10;20.10;;;;;;;17.65;100.00;98983.95;107412;1252;60342;-88
2023/07/18 00:05:55;;;;;;;22.00;20.00;;;;;;;17.63;100.00;98988.98;107438;1256;60488;-86
2023/07/18 00:08:21;;;;;;;22.90;20.90;;;;;;;17.62;100.00;98989.50;107307;1257;60428;-87
2023/07/18 00:10:47;;;;;;;21.40;19.50;;;;;;;17.61;100.00;98987.63;107062;1255;60565;-86
2023/07/18 00:13:13;;;;;;;21.10;19.10;;;;;;;17.59;100.00;98991.95;107599;1251;60526;-88
2023/07/18 00:15:39;;;;;;;21.60;19.60;;;;;;;17.58;100.00;98985.59;107306;1251;60478;-86
2023/07/18 00:18:06;;;;;;;20.50;18.80;;;;;;;17.57;100.00;98981.04;107798;1256;60402;-86
2023/07/18 00:20:33;;;;;;;21.40;19.40;;;;;;;17.57;100.00;98982.78;107835;1251;60482;-87
2023/07/18 00:22:59;;;;;;;24.20;20.20;;;;;;;17.55;100.00;98983.48;107854;1251;60492;-87
2023/07/18 00:25:25;;;;;;;21.50;19.60;;;;;;;17.54;100.00;98988.79;108012;1256;60463;-87
2023/07/18 00:27:53;;;;;;;20.30;18.40;;;;;;;17.55;100.00;98991.39;108049;1251;60401;-88
2023/07/18 00:30:21;;;;;;;19.60;17.80;;;;;;;17.55;100.00;98989.98;106946;1251;64996;-86
2023/07/18 00:32:47;;;;;;;21.00;18.80;;;;;;;17.54;100.00;98991.82;106762;1251;60508;-86
2023/07/18 00:35:14;;;;;;;21.60;19.70;;;;;;;17.54;100.00;98993.20;106801;1256;60472;-88
2023/07/18 00:37:42;;;;;;;19.10;17.30;;;;;;;17.54;100.00;98991.48;106532;1262;60538;-88
2023/07/18 00:40:11;;;;;;;17.30;15.50;;;;;;;17.51;100.00;98985.67;107004;1256;60510;-88
2023/07/18 00:42:39;;;;;;;16.00;14.70;;;;;;;17.46;100.00;98985.05;107167;1256;65164;-88
2023/07/18 00:45:07;;;;;;;14.50;13.30;;;;;;;17.42;100.00;98984.03;107178;1257;62125;-88
2023/07/18 00:47:40;;;;;;;16.50;15.00;;;;;;;17.41;100.00;98987.21;107236;1251;64076;-86
2023/07/18 00:50:08;;;;;;;14.60;13.20;;;;;;;17.40;100.00;98987.84;107139;1251;59203;-88
2023/07/18 00:52:37;;;;;;;14.70;13.30;;;;;;;17.38;100.00;98984.92;106816;1257;60554;-88
2023/07/18 00:55:03;;;;;;;14.10;12.70;;;;;;;17.34;100.00;98990.32;107213;1257;66190;-88
2023/07/18 00:57:31;;;;;;;15.50;14.10;;;;;;;17.30;100.00;98985.84;106994;1256;61384;-87
2023/07/18 00:59:57;;;;;;;18.60;16.80;;;;;;;17.29;100.00;98984.89;106860;1251;64505;-88
2023/07/18 01:02:23;;;;;;;17.70;16.10;;;;;;;17.28;100.00;98982.77;107149;1251;60429;-88
2023/07/18 01:04:50;;;;;;;19.40;17.50;;;;;;;17.28;100.00;98983.73;107073;1251;60457;-87
2023/07/18 01:07:18;;;;;;;18.70;17.10;;;;;;;17.27;100.00;98981.27;107162;1251;60342;-88
2023/07/18 01:09:44;;;;;;;18.50;17.00;;;;;;;17.26;100.00;98976.90;107352;1251;60630;-88
2023/07/18 01:12:10;;;;;;;18.40;16.20;;;;;;;17.25;100.00;98976.48;107195;1256;65744;-88
2023/07/18 01:14:36;;;;;;;17.70;16.00;;;;;;;17.22;100.00;98974.89;107435;1254;60561;-88
2023/07/18 01:17:05;;;;;;;18.20;15.80;;;;;;;17.20;100.00;98978.90;107447;1255;59240;-88
2023/07/18 01:19:35;;;;;;;16.60;15.00;;;;;;;17.18;100.00;98984.89;107200;1252;65655;-88
2023/07/18 01:22:01;;;;;;;17.20;15.40;;;;;;;17.15;100.00;98985.72;107596;1251;61320;-88
2023/07/18 01:24:26;;;;;;;17.70;15.80;;;;;;;17.11;100.00;98986.71;107525;1256;60472;-89
2023/07/18 01:26:53;;;;;;;19.20;17.40;;;;;;;17.10;100.00;98988.24;107600;1254;60469;-88
2023/07/18 01:29:19;;;;;;;18.70;16.90;;;;;;;17.09;100.00;98988.00;107587;1251;60428;-89
2023/07/18 01:31:45;;;;;;;18.50;16.90;;;;;;;17.08;100.00;98983.06;107656;1256;60414;-89
2023/07/18 01:34:14;;;;;;;19.10;17.40;;;;;;;17.06;100.00;98980.20;107627;1251;60479;-89
2023/07/18 01:36:41;;;;;;;19.10;17.30;;;;;;;17.05;100.00;98978.73;107636;1251;64643;-88
2023/07/18 01:39:08;;;;;;;19.40;17.60;;;;;;;17.05;100.00;98981.05;107661;1251;60463;-87
2023/07/18 01:41:34;;;;;;;20.40;18.10;;;;;;;17.06;100.00;98980.61;108793;1251;60463;-86
2023/07/18 01:44:00;;;;;;;19.10;17.30;;;;;;;17.08;100.00;98984.04;109414;1259;174193;-86
2023/07/18 01:46:26;;;;;;;19.00;17.40;;;;;;;17.09;100.00;98984.46;109167;1251;60457;-88
2023/07/18 01:48:52;;;;;;;19.00;17.30;;;;;;;17.08;100.00;98980.71;107578;1251;60807;-89
2023/07/18 01:51:18;;;;;;;19.00;17.20;;;;;;;17.08;100.00;98981.50;107798;1251;60335;-88
2023/07/18 01:53:44;;;;;;;18.90;17.20;;;;;;;17.07;100.00;98980.71;107743;1251;60601;-87
2023/07/18 01:56:10;;;;;;;20.80;18.70;;;;;;;17.05;100.00;98984.31;108099;1251;59191;-87
2023/07/18 01:58:37;;;;;;;20.60;18.60;;;;;;;17.04;100.00;98987.78;109637;1251;58134;-87
2023/07/18 02:01:03;;;;;;;19.40;17.70;;;;;;;17.05;100.00;98996.34;109776;1251;57963;-87
2023/07/18 02:03:29;;;;;;;19.50;17.60;;;;;;;17.07;100.00;99009.06;109011;1251;59218;-88
2023/07/18 02:05:55;;;;;;;18.50;16.60;;;;;;;17.10;100.00;99024.17;107346;1258;60459;-87
2023/07/18 02:08:21;;;;;;;18.80;16.90;;;;;;;17.16;100.00;99024.92;106959;1251;61032;-88
2023/07/18 02:10:47;;;;;;;19.20;17.20;;;;;;;17.21;100.00;99033.05;107134;1251;60475;-87
2023/07/18 02:13:13;;;;;;;25.40;20.90;;;;;;;17.27;100.00;99042.70;107024;1251;59695;-88
2023/07/18 02:15:39;;;;;;;28.20;25.20;;;;;;;17.32;100.00;99045.14;107041;1252;60453;-87
2023/07/18 02:18:05;;;;;;;28.60;24.60;;;;;;;17.35;100.00;99048.42;106869;1257;60335;-89
2023/07/18 02:20:31;;;;;;;26.40;22.60;;;;;;;17.38;100.00;99048.73;106959;1256;60481;-88
2023/07/18 02:23:00;;;;;;;28.20;25.30;;;;;;;17.40;100.00;99053.35;106873;1251;60354;-88
2023/07/18 02:25:26;;;;;;;25.30;22.40;;;;;;;17.42;100.00;99062.54;106898;1251;60456;-86
2023/07/18 02:27:52;;;;;;;25.00;22.60;;;;;;;17.45;100.00;99065.98;106896;1251;60683;-87
2023/07/18 02:30:18;;;;;;;25.40;22.80;;;;;;;17.48;100.00;99072.16;106855;1256;60495;-86
2023/07/18 02:32:54;;;;;;;25.60;22.90;;;;;;;17.51;100.00;99079.76;106879;1251;60526;-86
2023/07/18 02:35:21;;;;;;;25.30;22.80;;;;;;;17.54;100.00;99086.73;106789;1256;62923;-87
2023/07/18 02:37:47;;;;;;;28.60;24.50;;;;;;;17.54;100.00;99093.90;106461;1251;62142;-87
2023/07/18 02:40:17;;;;;;;27.10;24.60;;;;;;;17.54;100.00;99097.81;106810;1251;59359;-87
2023/07/18 02:42:44;;;;;;;27.60;24.90;;;;;;;17.54;100.00;99103.24;106909;1251;65541;-86
2023/07/18 02:45:10;;;;;;;27.30;24.40;;;;;;;17.56;100.00;99108.06;106859;1251;61646;-86
2023/07/18 02:47:36;;;;;;;28.40;24.90;;;;;;;17.61;100.00;99115.20;106921;1251;60478;-87
2023/07/18 02:50:02;;;;;;;31.70;28.50;;;;;;;17.66;100.00;99121.50;106428;1260;59535;-86
2023/07/18 02:52:29;;;;;;;29.40;26.40;;;;;;;17.70;100.00;99127.38;106612;1257;60479;-86
2023/07/18 02:54:55;;;;;;;30.10;26.90;;;;;;;17.73;100.00;99133.61;106810;1254;60453;-85
2023/07/18 02:57:21;;;;;;;33.10;27.50;;;;;;;17.74;100.00;99138.84;106914;1251;60434;-86
2023/07/18 02:59:47;;;;;;;32.40;29.30;;;;;;;17.75;100.00;99146.30;106823;1256;60481;-85
2023/07/18 03:02:13;;;;;;;35.20;31.10;;;;;;;17.76;100.00;99154.70;106763;1251;60542;-85
2023/07/18 03:04:39;;;;;;;36.20;32.60;;;;;;;17.77;100.00;99157.45;106524;1251;60318;-86
2023/07/18 03:07:07;;;;;;;35.60;31.70;;;;;;;17.78;100.00;99167.61;106714;1251;60453;-85
2023/07/18 03:09:34;;;;;;;38.20;34.10;;;;;;;17.78;100.00;99171.23;106740;1257;60005;-84
2023/07/18 03:12:02;;;;;;;36.10;29.40;;;;;;;17.77;100.00;99176.89;107116;1251;60362;-85
2023/07/18 03:14:29;;;;;;;29.90;26.90;;;;;;;17.76;100.00;99182.39;107350;1254;60475;-85
2023/07/18 03:16:55;;;;;;;27.50;24.80;;;;;;;17.74;100.00;99182.18;107426;1258;59784;-84
2023/07/18 03:19:21;;;;;;;25.30;22.80;;;;;;;17.74;100.00;99192.77;107812;1251;60510;-84
2023/07/18 03:21:47;;;;;;;20.90;18.80;;;;;;;17.73;100.00;99197.54;107444;1251;60697;-84
2023/07/18 03:24:13;;;;;;;20.90;18.90;;;;;;;17.72;100.00;99201.11;107227;1251;60549;-84
2023/07/18 03:26:39;;;;;;;16.70;15.00;;;;;;;17.70;100.00;99205.41;107212;1254;60470;-84
2023/07/18 03:29:06;;;;;;;15.40;13.50;;;;;;;17.67;100.00;99211.09;107172;1253;60545;-86
2023/07/18 03:31:33;;;;;;;14.10;12.70;;;;;;;17.65;100.00;99217.89;106932;1257;60364;-85
2023/07/18 03:34:00;;;;;;;13.40;11.20;;;;;;;17.77;100.00;99226.81;107155;1251;59791;-85
2023/07/18 03:36:27;;;;;;;11.80;10.70;;;;;;;18.20;100.00;99230.05;107093;1251;59692;-85
2023/07/18 03:38:53;;;;;;;9.70;8.70;;;;;;;18.74;100.00;99233.73;106906;1251;60455;-82
2023/07/18 03:41:19;;;;;;;12.50;8.30;;;;;;;19.26;100.00;99236.73;106911;1254;60470;-85
2023/07/18 03:43:46;;;;;;;9.90;7.70;;;;;;;19.60;100.00;99242.16;106950;1256;60551;-83
2023/07/18 03:46:12;;;;;;;11.00;7.40;;;;;;;19.94;100.00;99245.94;106959;1257;60497;-84
2023/07/18 03:48:38;;;;;;;8.30;6.60;;;;;;;20.34;100.00;99252.87;106913;1251;60664;-85
2023/07/18 03:51:05;;;;;;;6.50;5.90;;;;;;;20.77;100.00;99252.05;107108;1251;60456;-84
2023/07/18 03:53:32;;;;;;;7.30;5.90;;;;;;;21.18;100.00;99256.11;106918;1251;60348;-84
2023/07/18 03:56:06;;;;;;;12.00;5.70;;;;;;;21.51;100.00;99258.92;107028;1255;60431;-85
2023/07/18 03:58:33;;;;;;;6.30;5.50;;;;;;;21.97;100.00;99266.77;106822;1259;61472;-83
2023/07/18 04:01:07;;;;;;;7.10;5.80;;;;;;;22.48;100.00;99272.88;106792;1252;63912;-84
2023/07/18 04:03:34;;;;;;;6.40;5.80;;;;;;;23.01;100.00;99280.23;106711;1252;60715;-84
2023/07/18 04:06:01;;;;;;;8.50;5.80;;;;;;;23.32;100.00;99280.56;107039;1251;60401;-85
2023/07/18 04:08:28;;;;;;;8.60;5.50;;;;;;;23.46;100.00;99284.69;107244;1254;59346;-84
2023/07/18 04:10:56;;;;;;;8.00;5.80;;;;;;;23.92;100.00;99290.80;106241;1251;61246;-82
2023/07/18 04:13:24;;;;;;;7.40;5.70;;;;;;;24.28;100.00;99293.66;106449;1259;65112;-84
2023/07/18 04:15:50;;;;;;;8.60;5.50;;;;;;;24.72;100.00;99294.52;106091;1256;61925;-84
2023/07/18 04:18:16;;;;;;;7.20;5.80;;;;;;;25.05;100.00;99302.27;106024;1251;60561;-85
2023/07/18 04:20:42;;;;;;;8.40;6.70;;;;;;;25.28;100.00;99308.09;106165;1251;60495;-84
2023/07/18 04:23:08;;;;;;;8.40;6.20;;;;;;;25.50;100.00;99315.30;106124;1251;60408;-84
2023/07/18 04:25:34;;;;;;;7.50;5.80;;;;;;;25.65;100.00;99323.41;106137;1256;60444;-84
2023/07/18 04:28:02;;;;;;;7.30;6.60;;;;;;;25.76;100.00;99326.95;106018;1251;60505;-83
2023/07/18 04:30:28;;;;;;;6.90;5.30;;;;;;;25.83;100.00;99333.17;106124;1251;60454;-84
2023/07/18 04:32:54;;;;;;;6.50;5.40;;;;;;;25.79;100.00;99339.20;106031;1251;60539;-83
2023/07/18 04:35:20;;;;;;;9.00;5.70;;;;;;;25.83;100.00;99336.28;105832;1251;60456;-84
2023/07/18 04:37:48;;;;;;;6.40;5.00;;;;;;;25.90;100.00;99341.12;105982;1251;60971;-84
2023/07/18 04:40:15;;;;;;;7.50;5.00;;;;;;;25.94;100.00;99345.77;109686;1251;58150;-84
2023/07/18 04:42:41;;;;;;;7.90;5.40;;;;;;;25.92;100.00;99347.84;109748;1251;58462;-85
2023/07/18 04:45:07;;;;;;;6.90;4.90;;;;;;;26.12;100.00;99353.95;109925;1251;58188;-83
2023/07/18 04:47:33;;;;;;;8.80;6.00;;;;;;;26.33;100.00;99353.48;109839;1251;58162;-85
2023/07/18 04:49:59;;;;;;;8.30;6.90;;;;;;;26.56;100.00;99355.45;109816;1251;58198;-85
2023/07/18 04:52:25;;;;;;;9.50;5.30;;;;;;;26.82;100.00;99354.18;109646;1251;58189;-84
2023/07/18 04:54:51;;;;;;;6.90;5.20;;;;;;;27.03;100.00;99351.64;109700;1251;58328;-85
2023/07/18 04:57:17;;;;;;;6.90;4.70;;;;;;;27.23;100.00;99351.92;109585;1250;58241;-84
2023/07/18 04:59:43;;;;;;;6.50;4.40;;;;;;;27.47;100.00;99357.55;109712;1251;58469;-85
2023/07/18 05:02:10;;;;;;;5.50;4.60;;;;;;;27.58;100.00;99362.83;109652;1251;58296;-84
2023/07/18 05:04:35;;;;;;;5.60;4.80;;;;;;;27.58;100.00;99362.33;109683;1251;58290;-84
2023/07/18 05:07:02;;;;;;;7.30;5.40;;;;;;;27.32;100.00;99364.68;109735;1251;66057;-85
2023/07/18 05:09:29;;;;;;;7.30;5.40;;;;;;;27.15;100.00;99364.05;109789;1251;58303;-82
2023/07/18 05:11:55;;;;;;;5.70;4.60;;;;;;;27.19;100.00;99364.66;109434;1256;64081;-82
2023/07/18 05:14:22;;;;;;;9.10;4.50;;;;;;;27.28;100.00;99365.17;109281;1260;57874;-85
2023/07/18 05:16:49;;;;;;;7.00;4.80;;;;;;;27.32;100.00;99365.11;109029;1260;58586;-85
2023/07/18 05:19:14;;;;;;;6.20;4.60;;;;;;;27.41;100.00;99366.22;109026;1260;58308;-84
2023/07/18 05:21:41;;;;;;;9.70;5.10;;;;;;;27.40;100.00;99368.36;109077;1260;58554;-84
2023/07/18 05:24:07;;;;;;;7.60;4.70;;;;;;;27.44;100.00;99373.61;109079;1260;58305;-84
2023/07/18 05:26:33;;;;;;;5.20;4.30;;;;;;;27.60;100.00;99376.08;109145;1264;58170;-83
2023/07/18 05:28:59;;;;;;;4.40;3.90;;;;;;;27.70;100.00;99374.22;108804;1270;58015;-83
2023/07/18 05:31:25;;;;;;;5.80;4.10;;;;;;;27.84;100.00;99374.98;108674;1270;58339;-85
2023/07/18 05:33:51;;;;;;;5.10;4.30;;;;;;;27.92;100.00;99374.38;108529;1270;58206;-85
2023/07/18 05:36:17;;;;;;;6.80;4.30;;;;;;;27.88;100.00;99374.40;108485;1270;59030;-84
2023/07/18 05:38:45;;;;;;;6.00;3.90;;;;;;;27.85;100.00;99372.78;108498;1270;58156;-84
2023/07/18 05:41:11;;;;;;;7.00;5.10;;;;;;;27.74;100.00;99371.75;108515;1270;58246;-85
2023/07/18 05:43:37;;;;;;;7.50;4.60;;;;;;;27.60;100.00;99370.39;108520;1270;58201;-85
2023/07/18 05:46:03;;;;;;;4.90;4.10;;;;;;;27.56;100.00;99378.42;108492;1270;58270;-84
2023/07/18 05:48:29;;;;;;;5.70;4.60;;;;;;;27.53;100.00;99382.15;108536;1269;58291;-84
2023/07/18 05:50:55;;;;;;;6.80;5.10;;;;;;;27.53;100.00;99388.29;108534;1270;58152;-85
2023/07/18 05:53:22;;;;;;;7.80;4.80;;;;;;;27.54;100.00;99390.04;108494;1270;66392;-85
2023/07/18 05:55:49;;;;;;;9.00;4.90;;;;;;;27.47;100.00;99389.54;108476;1270;59272;-85
2023/07/18 05:58:15;;;;;;;6.00;4.10;;;;;;;27.25;100.00;99391.02;108500;1270;64046;-85
2023/07/18 06:00:42;;;;;;;5.60;4.40;;;;;;;27.32;100.00;99390.38;108517;1270;58210;-85
2023/07/18 06:03:08;;;;;;;8.20;4.60;;;;;;;27.40;100.00;99389.72;108499;1270;58781;-85
2023/07/18 06:05:34;;;;;;;6.60;4.70;;;;;;;27.33;100.00;99391.11;108389;1270;58291;-85
2023/07/18 06:08:00;;;;;;;5.40;4.90;;;;;;;27.43;100.00;99392.42;108544;1270;58101;-85
2023/07/18 06:10:26;;;;;;;5.80;4.10;;;;;;;27.72;100.00;99395.09;108525;1270;58258;-84
2023/07/18 06:12:52;;;;;;;5.30;4.20;;;;;;;27.93;100.00;99395.58;108520;1270;58168;-85
2023/07/18 06:15:18;;;;;;;5.30;4.20;;;;;;;27.98;100.00;99397.83;108520;1270;58211;-84
2023/07/18 06:17:44;;;;;;;7.40;4.80;;;;;;;27.75;100.00;99401.09;108528;1270;58249;-84
2023/07/18 06:20:13;;;;;;;8.30;4.90;;;;;;;27.75;100.00;99407.50;108545;1270;58216;-85
2023/07/18 06:22:40;;;;;;;7.00;4.20;;;;;;;27.80;100.00;99407.27;108482;1270;58184;-84
2023/07/18 06:25:07;;;;;;;4.90;4.30;;;;;;;27.49;100.00;99403.95;108490;1270;58151;-83
2023/07/18 06:27:33;;;;;;;6.00;4.20;;;;;;;27.39;100.00;99407.48;108285;1270;58272;-85
2023/07/18 06:29:59;;;;;;;5.40;3.90;;;;;;;27.35;100.00;99412.98;108510;1270;58159;-85
2023/07/18 06:32:25;;;;;;;7.90;4.00;;;;;;;27.29;100.00;99410.66;107971;1270;58286;-85
2023/07/18 06:34:51;;;;;;;4.80;3.90;;;;;;;27.38;100.00;99417.52;107950;1270;58263;-85
2023/07/18 06:37:17;;;;;;;7.60;4.40;;;;;;;27.41;100.00;99421.80;107928;1270;58339;-84
2023/07/18 06:39:43;;;;;;;5.90;4.00;;;;;;;27.43;100.00;99415.33;108528;1270;58678;-85
2023/07/18 06:42:09;;;;;;;4.20;3.80;;;;;;;27.43;100.00;99418.31;107802;1270;58261;-84
2023/07/18 06:44:35;;;;;;;6.80;3.90;;;;;;;27.12;100.00;99419.61;108488;1270;58232;-84
2023/07/18 06:47:02;;;;;;;6.60;4.30;;;;;;;26.88;100.00;99416.16;108491;1270;58159;-85
2023/07/18 06:49:28;;;;;;;5.00;3.90;;;;;;;26.84;99.93;99418.69;107932;1270;58362;-86
2023/07/18 06:51:55;;;;;;;6.60;4.10;;;;;;;26.90;99.96;99417.08;108493;1270;58440;-84
2023/07/18 06:54:20;;;;;;;8.30;4.60;;;;;;;27.03;99.25;99416.96;108497;1270;59246;-84
2023/07/18 06:56:46;;;;;;;5.60;3.80;;;;;;;26.84;96.93;99416.65;108550;1270;58356;-84
2023/07/18 06:59:13;;;;;;;5.70;4.20;;;;;;;26.64;99.02;99413.91;108302;1270;58110;-84
2023/07/18 07:01:39;;;;;;;4.90;3.60;;;;;;;26.85;100.00;99421.83;108307;1270;58180;-84
2023/07/18 07:04:06;;;;;;;5.60;5.00;;;;;;;26.95;98.64;99423.28;108506;1270;58125;-83
2023/07/18 07:06:32;;;;;;;7.50;4.50;;;;;;;26.92;98.23;99421.73;108521;1270;58139;-84
2023/07/18 07:08:58;;;;;;;5.90;4.30;;;;;;;26.96;96.86;99422.04;108454;1269;58199;-83
2023/07/18 07:11:27;;;;;;;6.50;4.30;;;;;;;27.05;96.39;99421.98;108480;1270;58422;-84
2023/07/18 07:13:53;;;;;;;8.10;4.10;;;;;;;27.14;93.98;99428.45;108476;1270;58184;-84
2023/07/18 07:16:19;;;;;;;5.90;4.40;;;;;;;27.00;90.46;99429.70;108457;1269;58223;-83
2023/07/18 07:18:49;;;;;;;5.10;3.80;;;;;;;26.67;89.21;99428.81;107999;1270;58461;-84
2023/07/18 07:21:15;;;;;;;4.50;4.00;;;;;;;26.46;90.99;99432.38;108472;1270;63943;-83
2023/07/18 07:23:41;;;;;;;8.00;4.30;;;;;;;26.55;89.34;99430.55;108460;1270;58174;-82
2023/07/18 07:26:07;;;;;;;4.40;3.80;;;;;;;26.67;88.04;99424.10;108504;1270;58320;-83
2023/07/18 07:28:35;;;;;;;6.00;3.80;;;;;;;26.68;87.75;99421.22;108496;1270;58444;-84
2023/07/18 07:31:03;;;;;;;5.60;3.90;;;;;;;26.53;87.29;99421.61;108473;1270;60169;-84
2023/07/18 07:33:29;;;;;;;5.10;4.10;;;;;;;26.19;85.95;99428.09;108468;1269;64956;-83
2023/07/18 07:35:55;;;;;;;6.30;4.70;;;;;;;25.80;84.22;99426.39;108497;1270;58206;-84
2023/07/18 07:38:21;;;;;;;5.30;3.70;;;;;;;25.65;84.96;99422.23;108534;1270;58168;-84
2023/07/18 07:40:47;;;;;;;4.70;3.60;;;;;;;25.43;84.23;99420.17;108509;1270;58241;-84
2023/07/18 07:43:13;;;;;;;5.90;3.90;;;;;;;25.23;84.01;99426.43;108518;1270;58410;-84
2023/07/18 07:45:39;;;;;;;4.90;3.50;;;;;;;25.00;83.82;99424.14;108283;1270;58178;-84
2023/07/18 07:48:05;;;;;;;5.60;3.90;;;;;;;24.90;82.53;99429.23;108518;1270;58177;-83
2023/07/18 07:50:33;;;;;;;7.40;5.00;;;;;;;24.78;80.75;99430.65;108474;1270;58230;-82
2023/07/18 07:52:59;;;;;;;7.00;3.60;;;;;;;24.57;82.11;99433.98;108519;1270;58790;-84
2023/07/18 07:55:27;;;;;;;6.80;3.90;;;;;;;24.40;82.02;99433.50;108027;1271;58650;-84
2023/07/18 07:57:53;;;;;;;6.50;3.90;;;;;;;24.25;82.84;99434.70;108473;1270;58216;-83
2023/07/18 08:00:19;;;;;;;6.50;3.60;;;;;;;24.27;85.07;99430.80;108511;1270;58206;-84
2023/07/18 08:02:46;;;;;;;5.80;4.00;;;;;;;24.45;80.12;99429.02;108523;1270;58452;-84
2023/07/18 08:05:12;;;;;;;4.50;3.40;;;;;;;24.47;77.56;99430.86;108521;1270;58213;-83
2023/07/18 08:07:39;;;;;;;5.70;4.00;;;;;;;24.43;77.79;99429.31;108502;1270;58273;-83
2023/07/18 08:10:06;;;;;;;5.80;3.60;;;;;;;24.38;77.37;99427.36;108503;1270;58335;-83
2023/07/18 08:12:32;;;;;;;4.20;3.40;;;;;;;24.46;78.61;99423.88;108507;1269;58223;-83
2023/07/18 08:14:58;;;;;;;6.00;3.30;;;;;;;24.49;77.35;99419.92;108525;1270;58263;-83
2023/07/18 08:17:25;;;;;;;3.80;3.50;;;;;;;24.45;77.48;99422.88;108487;1270;58350;-83
2023/07/18 08:19:51;;;;;;;5.60;4.00;;;;;;;24.45;77.86;99418.79;108519;1270;58200;-84
2023/07/18 08:22:17;;;;;;;4.80;3.70;;;;;;;24.48;77.37;99415.70;108510;1269;58243;-84
2023/07/18 08:24:43;;;;;;;4.50;3.60;;;;;;;24.47;77.24;99416.90;108468;1269;58171;-83
2023/07/18 08:27:09;;;;;;;6.30;3.10;;;;;;;24.47;76.50;99415.98;108493;1270;58200;-84
2023/07/18 08:29:35;;;;;;;5.90;3.20;;;;;;;24.47;75.74;99419.59;108510;1270;58295;-85
2023/07/18 08:32:03;;;;;;;3.60;3.30;;;;;;;24.47;74.88;99417.41;108503;1270;58234;-84
2023/07/18 08:36:07;;;;;;;3.60;2.90;;;;;;;24.50;75.12;99413.83;106038;1290;599312;-82
2023/07/18 08:38:33;;;;;;;2.90;2.60;;;;;;;24.40;71.73;99416.07;106602;1266;59135;-86
2023/07/18 08:41:00;;;;;;;2.80;2.30;;;;;;;24.29;71.38;99417.13;105141;1266;59215;-84
2023/07/18 08:43:27;;;;;;;3.80;2.60;;;;;;;24.36;72.96;99412.90;105072;1266;64157;-84
2023/07/18 08:45:55;;;;;;;4.00;2.70;;;;;;;24.51;73.11;99413.52;105058;1266;59795;-85
2023/07/18 08:48:23;;;;;;;4.80;2.90;;;;;;;24.59;72.44;99416.98;106882;1266;64554;-83
2023/07/18 08:50:58;;;;;;;4.80;2.70;;;;;;;24.62;72.92;99413.35;108438;1266;153099;-81
2023/07/18 08:53:25;;;;;;;5.30;3.00;;;;;;;24.71;73.19;99409.86;108472;1264;58843;-84
2023/07/18 08:55:52;;;;;;;3.10;2.20;;;;;;;24.72;69.90;99412.61;105729;1266;64040;-84
2023/07/18 08:58:22;;;;;;;2.60;2.10;;;;;;;24.67;70.40;99408.95;105157;1270;61553;-85
2023/07/18 09:00:48;;;;;;;4.40;2.30;;;;;;;24.76;69.65;99405.93;105083;1266;64013;-87
2023/07/18 09:03:15;;;;;;;6.60;2.50;;;;;;;24.74;69.31;99409.97;105128;1268;59582;-83
2023/07/18 09:05:42;;;;;;;2.60;2.20;;;;;;;24.72;68.27;99409.89;105925;1255;59733;-83
2023/07/18 09:08:09;;;;;;;3.90;2.70;;;;;;;24.67;67.43;99406.48;105768;1254;65973;-84
2023/07/18 09:10:35;;;;;;;3.30;2.70;;;;;;;24.64;67.91;99411.55;105722;1253;59584;-83
2023/07/18 09:13:10;;;;;;;3.50;2.30;;;;;;;24.71;68.23;99404.74;105848;1256;65523;-83
2023/07/18 09:15:37;;;;;;;4.80;2.70;;;;;;;24.80;68.18;99402.30;105864;1253;59628;-84
2023/07/18 09:18:06;;;;;;;4.90;2.90;;;;;;;24.84;67.79;99401.57;105863;1253;59514;-85
2023/07/18 09:20:33;;;;;;;5.10;2.70;;;;;;;24.83;67.42;99395.54;105939;1253;65642;-84
2023/07/18 09:23:05;;;;;;;2.90;2.30;;;;;;;24.83;67.21;99396.13;106084;1253;61999;-84
2023/07/18 09:25:39;;;;;;;3.30;2.70;;;;;;;24.79;67.16;99394.94;105924;1252;65886;-84
2023/07/18 09:28:10;;;;;;;4.30;2.60;;;;;;;24.80;66.65;99391.55;105951;1253;59650;-82
2023/07/18 09:30:39;;;;;;;3.60;2.60;;;;;;;24.81;66.27;99393.54;105671;1259;59724;-84
2023/07/18 09:33:06;;;;;;;4.30;3.10;;;;;;;24.80;63.53;99389.91;105976;1254;65132;-85
2023/07/18 09:35:39;;;;;;;4.30;2.50;;;;;;;24.73;61.96;99387.26;105994;1256;60609;-83
2023/07/18 09:38:09;;;;;;;3.20;2.70;;;;;;;24.71;62.59;99388.70;105883;1254;64584;-84
2023/07/18 09:40:39;;;;;;;3.10;2.20;;;;;;;24.81;63.45;99385.95;105573;1254;59668;-82
2023/07/18 09:43:06;;;;;;;5.10;2.20;;;;;;;24.96;63.66;99386.10;105759;1254;59730;-82
2023/07/18 09:45:34;;;;;;;4.30;2.40;;;;;;;25.09;63.30;99379.77;105808;1253;64532;-82
2023/07/18 09:48:03;;;;;;;2.70;2.40;;;;;;;25.21;63.26;99382.17;105733;1259;60029;-82
2023/07/18 09:50:32;;;;;;;4.40;2.10;;;;;;;25.26;62.33;99378.02;105831;1253;65504;-83
2023/07/18 09:53:01;;;;;;;3.50;2.40;;;;;;;25.20;61.77;99376.11;105966;1260;59641;-83
2023/07/18 09:55:30;;;;;;;4.40;2.40;;;;;;;25.20;62.56;99371.39;105931;1257;59628;-83
2023/07/18 09:57:59;;;;;;;3.50;2.30;;;;;;;25.28;62.06;99378.42;105974;1254;64125;-83
2023/07/18 10:00:26;;;;;;;5.30;2.50;;;;;;;25.24;60.76;99375.48;105979;1253;60352;-83
2023/07/18 10:02:55;;;;;;;4.40;2.30;;;;;;;25.16;59.62;99373.81;105985;1258;65617;-83
2023/07/18 10:05:22;;;;;;;4.50;2.20;;;;;;;25.07;60.11;99371.55;105953;1254;59746;-83
2023/07/18 10:07:50;;;;;;;3.70;2.30;;;;;;;25.19;61.80;99366.80;106019;1259;59629;-85
2023/07/18 10:10:17;;;;;;;3.00;2.00;;;;;;;25.33;60.49;99361.92;106445;1253;64950;-82
2023/07/18 10:13:00;;;;;;;3.10;2.80;;;;;;;25.37;60.02;99356.70;108296;1253;60302;-83
2023/07/18 10:15:28;;;;;;;2.50;2.30;;;;;;;25.37;60.50;99357.15;108063;1257;64407;-84
2023/07/18 10:18:16;;;;;;;4.00;2.80;;;;;;;25.39;59.25;99350.16;107315;1256;59164;-83
2023/07/18 10:20:57;;;;;;;4.60;2.50;;;;;;;25.38;59.51;99349.57;105878;1253;59721;-83
2023/07/18 10:23:42;;;;;;;2.60;2.20;;;;;;;25.20;59.83;99345.44;106027;1258;65944;-83
2023/07/18 10:26:08;;;;;;;2.90;2.30;;;;;;;25.20;59.70;99344.53;105841;1254;61364;-83
2023/07/18 10:28:45;;;;;;;3.10;2.30;;;;;;;25.30;59.64;99345.98;105758;1253;64580;-83
2023/07/18 10:31:37;;;;;;;4.90;2.30;;;;;;;25.48;60.35;99341.73;105954;1258;59741;-83
2023/07/18 10:34:15;;;;;;;3.40;2.30;;;;;;;25.77;60.24;99341.41;105973;1253;59614;-83
2023/07/18 10:36:59;;;;;;;2.40;2.10;;;;;;;26.12;59.36;99334.66;105973;1257;64832;-83
2023/07/18 10:39:40;;;;;;;4.10;2.10;;;;;;;26.38;58.78;99327.77;105921;1257;60575;-84
2023/07/18 10:42:07;;;;;;;4.70;2.40;;;;;;;26.61;58.65;99327.73;105740;1262;65671;-83
2023/07/18 10:44:37;;;;;;;3.10;2.30;;;;;;;26.90;59.23;99325.39;105941;1253;59733;-82
2023/07/18 10:47:13;;;;;;;4.20;2.50;;;;;;;27.11;57.37;99326.48;105853;1256;59640;-81
2023/07/18 10:49:41;;;;;;;2.60;2.40;;;;;;;27.12;56.31;99324.64;105892;1253;64754;-82
2023/07/18 10:52:09;;;;;;;3.40;1.90;;;;;;;27.17;55.98;99320.42;105864;1253;61566;-82
2023/07/18 10:54:35;;;;;;;3.70;1.90;;;;;;;27.22;55.36;99313.44;105795;1253;64491;-81
2023/07/18 10:57:03;;;;;;;3.40;1.90;;;;;;;27.13;51.65;99311.98;105877;1255;60028;-82
2023/07/18 10:59:30;;;;;;;3.80;1.80;;;;;;;26.80;51.20;99312.48;105762;1254;59640;-82
2023/07/18 11:02:00;;;;;;;4.60;3.10;;;;;;;26.74;51.91;99307.64;105865;1254;64967;-82
2023/07/18 11:04:28;;;;;;;3.60;2.40;;;;;;;26.76;50.95;99305.30;105890;1253;61549;-81
2023/07/18 11:06:56;;;;;;;2.60;2.20;;;;;;;26.64;51.24;99300.13;105852;1253;64514;-80
2023/07/18 11:09:23;;;;;;;2.30;1.80;;;;;;;26.64;51.83;99299.05;105739;1257;59737;-81
2023/07/18 11:11:50;;;;;;;2.40;2.20;;;;;;;26.64;50.96;99296.64;105887;1254;59632;-81
2023/07/18 11:14:18;;;;;;;2.00;1.80;;;;;;;26.41;50.29;99294.02;105714;1259;65806;-80
2023/07/18 11:16:45;;;;;;;2.30;1.60;;;;;;;26.32;52.12;99291.30;105350;1262;61634;-81